Time;durP1;ratioP1;P1;durP2;ratioP2;P2;SDS_P1;SDS_P2;PMS_P1;PMS_P2;Temp;Humidity;BMP_temperature;BMP_pressure;BME280_temperature;BME280_humidity;BME280_pressure;Samples;Min_cycle;Max_cycle;Signal;HPM_P1;HPM_P2
2022/06/02 00:01:05;;;;;;;11.75;10.82;;;;;;;17.22;57.95;100179.94;4965061;28;98060;-78
2022/06/02 00:03:40;;;;;;;11.38;10.35;;;;;;;16.97;58.74;100179.69;4973623;28;101571;-79
2022/06/02 00:06:11;;;;;;;10.63;9.70;;;;;;;17.02;58.69;100184.72;4920099;28;96685;-79
2022/06/02 00:08:36;;;;;;;10.75;9.93;;;;;;;16.70;58.90;100184.91;4973906;28;96853;-79
2022/06/02 00:11:26;;;;;;;14.05;11.68;;;;;;;16.43;59.72;100187.41;4981103;28;101330;-82
2022/06/02 00:14:03;;;;;;;11.77;10.88;;;;;;;16.15;60.29;100177.63;4943736;28;97542;-79
2022/06/02 00:16:54;;;;;;;11.65;10.65;;;;;;;16.09;60.92;100174.50;4985344;28;96700;-79
2022/06/02 00:19:29;;;;;;;12.02;11.00;;;;;;;16.21;60.71;100181.72;4937429;28;96970;-79
2022/06/02 00:22:00;;;;;;;11.40;10.50;;;;;;;16.26;60.22;100156.66;4956979;28;98621;-79
2022/06/02 00:25:01;;;;;;;11.65;10.75;;;;;;;16.40;60.61;100190.25;4950749;28;96937;-79
2022/06/02 00:27:48;;;;;;;11.13;10.30;;;;;;;16.24;60.36;100190.31;4934997;28;96929;-79
2022/06/02 00:30:20;;;;;;;10.30;9.55;;;;;;;16.38;60.80;100188.66;4990554;28;96816;-78
2022/06/02 00:32:50;;;;;;;11.60;10.25;;;;;;;16.35;61.21;100191.47;4955707;28;98458;-79
2022/06/02 00:35:22;;;;;;;11.63;10.60;;;;;;;16.40;60.72;100197.34;4956273;28;101423;-78
2022/06/02 00:38:18;;;;;;;10.90;9.90;;;;;;;16.46;61.15;100196.97;4962255;28;98321;-79
2022/06/02 00:40:44;;;;;;;10.80;9.95;;;;;;;16.41;60.47;100177.88;4956180;28;97023;-84
2022/06/02 00:43:35;;;;;;;11.70;10.80;;;;;;;16.32;61.59;100192.53;4952850;28;101506;-79
2022/06/02 00:46:22;;;;;;;12.00;11.02;;;;;;;16.16;61.72;100167.91;4941406;28;100696;-79
2022/06/02 00:49:09;;;;;;;11.45;10.55;;;;;;;16.07;61.90;100188.69;4986088;28;96615;-79
2022/06/02 00:51:48;;;;;;;10.05;9.30;;;;;;;16.02;61.85;100185.44;4944567;28;96749;-79
2022/06/02 00:57:31;;;;;;;9.93;9.32;;;;;;;16.15;61.90;100201.47;4972495;28;97881;-79
2022/06/02 01:00:11;;;;;;;11.32;10.40;;;;;;;16.31;61.62;100212.00;4988120;28;97034;-78
2022/06/02 01:03:08;;;;;;;11.35;10.45;;;;;;;16.28;62.08;100205.09;4956355;28;96752;-79
2022/06/02 01:06:01;;;;;;;12.20;11.10;;;;;;;16.37;61.91;100216.06;4908375;28;101831;-79
2022/06/02 01:08:45;;;;;;;13.00;11.80;;;;;;;16.35;62.03;100216.19;4960560;28;101377;-78
2022/06/02 01:11:29;;;;;;;11.60;10.60;;;;;;;16.22;62.28;100213.41;4953883;28;96808;-79
2022/06/02 01:14:07;;;;;;;11.95;11.00;;;;;;;16.20;62.31;100217.06;4970407;28;96956;-79
2022/06/02 01:16:57;;;;;;;12.57;11.40;;;;;;;16.12;62.58;100222.84;4967670;28;100849;-79
2022/06/02 01:19:55;;;;;;;12.48;10.38;;;;;;;16.17;62.48;100206.66;4953852;28;97893;-81
2022/06/02 01:23:02;;;;;;;12.73;11.57;;;;;;;16.16;62.59;100218.22;4934033;28;97419;-79
2022/06/02 01:25:51;;;;;;;12.60;11.38;;;;;;;15.83;63.00;100195.41;4961089;28;97191;-79
2022/06/02 01:28:54;;;;;;;12.57;11.65;;;;;;;16.09;62.51;100224.81;4939651;28;97967;-78
2022/06/02 01:31:22;;;;;;;11.93;10.68;;;;;;;15.95;63.07;100215.88;4966051;28;101562;-79
2022/06/02 01:33:54;;;;;;;10.90;9.88;;;;;;;16.18;62.24;100221.63;4948629;28;97306;-79
2022/06/02 01:36:23;;;;;;;11.75;10.57;;;;;;;16.01;62.56;100225.25;4980353;28;97080;-79
2022/06/02 01:38:54;;;;;;;12.48;11.27;;;;;;;16.14;62.18;100217.44;4979582;28;101066;-80
2022/06/02 01:41:32;;;;;;;;;;;;;;;16.02;62.79;100222.50;4965951;28;97566;-79
2022/06/02 01:44:18;;;;;;;12.25;11.20;;;;;;;16.00;63.08;100223.56;4985947;28;97827;-79
2022/06/02 01:46:52;;;;;;;11.98;11.02;;;;;;;16.03;63.13;100226.03;4936652;28;96803;-80
2022/06/02 01:49:44;;;;;;;11.25;10.35;;;;;;;16.14;62.82;100215.63;4979967;28;101258;-79
2022/06/02 01:52:21;;;;;;;11.52;10.35;;;;;;;16.11;62.96;100222.91;4964945;28;98345;-79
2022/06/02 01:54:50;;;;;;;12.68;11.52;;;;;;;16.09;62.71;100223.03;4971477;28;96749;-85
2022/06/02 01:57:16;;;;;;;12.80;11.80;;;;;;;15.91;63.45;100216.13;4944287;28;96887;-79
2022/06/02 01:59:44;;;;;;;11.98;10.95;;;;;;;15.63;64.08;100205.31;4989000;28;100813;-79
2022/06/02 02:02:27;;;;;;;12.27;11.27;;;;;;;15.86;63.60;100220.84;4962810;28;101241;-78
2022/06/02 02:05:22;;;;;;;13.73;11.45;;;;;;;15.67;63.66;100198.03;4975546;28;97719;-80
2022/06/02 02:08:01;;;;;;;13.60;12.25;;;;;;;15.80;63.46;100227.34;4969364;28;98043;-85
2022/06/02 02:10:42;;;;;;;11.75;10.63;;;;;;;15.70;64.24;100226.16;4967367;28;97989;-79
2022/06/02 02:13:23;;;;;;;12.35;11.40;;;;;;;15.75;64.03;100209.06;4963036;28;101401;-79
2022/06/02 02:16:01;;;;;;;12.70;11.70;;;;;;;15.79;63.99;100207.09;4983583;28;96695;-82
2022/06/02 02:19:08;;;;;;;12.77;11.40;;;;;;;15.67;63.96;100200.69;4954051;28;97325;-79
2022/06/02 02:21:44;;;;;;;12.30;11.15;;;;;;;15.70;63.96;100202.34;4872068;28;101045;-82
2022/06/02 02:24:37;;;;;;;12.35;11.23;;;;;;;15.63;64.27;100194.72;4946487;28;101161;-78
2022/06/02 02:28:02;;;;;;;12.50;11.25;;;;;;;15.53;64.92;100205.91;4980909;28;96890;-78
2022/06/02 02:30:23;;;;;;;13.13;12.02;;;;;;;15.50;64.91;100209.56;4970978;28;96808;-78
2022/06/02 02:33:11;;;;;;;15.25;11.00;;;;;;;15.66;64.66;100219.31;4974649;28;98112;-82
2022/06/02 02:35:54;;;;;;;12.00;10.88;;;;;;;15.70;64.24;100213.78;4941812;28;101245;-78
2022/06/02 02:38:34;;;;;;;13.02;11.73;;;;;;;15.74;64.53;100225.91;4971338;28;96836;-78
2022/06/02 02:41:06;;;;;;;14.40;11.50;;;;;;;15.82;64.63;100226.31;4996952;28;96755;-79
2022/06/02 02:43:51;;;;;;;12.90;11.50;;;;;;;15.79;64.52;100236.22;4957062;28;101231;-79
2022/06/02 02:46:55;;;;;;;12.85;11.85;;;;;;;15.57;65.39;100231.25;4958463;28;97716;-78
2022/06/02 02:49:35;;;;;;;14.32;11.05;;;;;;;15.42;65.54;100218.88;4950271;28;96910;-78
2022/06/02 02:52:41;;;;;;;12.95;11.10;;;;;;;15.70;65.04;100234.94;4957809;28;96625;-79
2022/06/02 02:55:35;;;;;;;13.13;11.98;;;;;;;15.75;64.42;100239.97;4957346;28;101578;-79
2022/06/02 02:58:08;;;;;;;12.38;11.27;;;;;;;15.73;64.74;100258.56;4937304;28;101417;-79
2022/06/02 03:01:03;;;;;;;13.32;12.07;;;;;;;15.75;64.36;100256.72;4955368;28;96668;-79
2022/06/02 03:03:31;;;;;;;12.70;11.38;;;;;;;15.81;64.12;100261.66;4938805;28;97241;-80
2022/06/02 03:06:15;;;;;;;19.20;12.18;;;;;;;15.68;65.04;100267.72;4955444;28;97658;-79
2022/06/02 03:08:59;;;;;;;13.25;12.00;;;;;;;15.78;64.52;100268.91;4970947;28;101484;-79
2022/06/02 03:11:49;;;;;;;13.07;11.02;;;;;;;15.78;64.50;100283.00;4960010;28;97090;-78
2022/06/02 03:14:39;;;;;;;12.32;11.23;;;;;;;15.87;63.84;100299.31;4970217;28;96889;-79
2022/06/02 03:17:20;;;;;;;14.63;11.20;;;;;;;15.86;63.54;100332.88;4953945;28;97707;-79
2022/06/02 03:19:57;;;;;;;12.80;10.73;;;;;;;15.78;63.49;100345.66;4955819;28;97509;-79
2022/06/02 03:22:42;;;;;;;11.80;10.68;;;;;;;15.74;62.98;100344.13;4940887;28;96693;-82
2022/06/02 03:25:14;;;;;;;11.65;10.68;;;;;;;15.76;62.74;100360.75;4943034;28;97197;-79
2022/06/02 03:27:53;;;;;;;12.52;10.63;;;;;;;15.61;62.33;100341.25;4955274;28;97741;-78
2022/06/02 03:30:20;;;;;;;12.73;11.48;;;;;;;15.60;62.87;100368.66;4970074;28;101057;-78
2022/06/02 03:33:01;;;;;;;11.23;10.30;;;;;;;15.61;62.34;100371.22;4970643;28;97014;-79
2022/06/02 03:36:12;;;;;;;12.25;11.10;;;;;;;15.52;61.94;100353.19;4954482;28;96741;-79
2022/06/02 03:38:52;;;;;;;12.13;11.13;;;;;;;15.55;62.29;100379.47;4936305;28;101590;-79
2022/06/02 03:41:33;;;;;;;12.10;11.10;;;;;;;15.63;62.10;100393.16;4955167;28;98194;-79
2022/06/02 03:44:13;;;;;;;12.98;11.88;;;;;;;15.55;62.21;100381.28;4969431;28;96931;-79
2022/06/02 03:46:54;;;;;;;12.02;11.00;;;;;;;15.44;62.22;100363.34;4970235;28;96945;-79
2022/06/02 03:49:25;;;;;;;13.27;12.17;;;;;;;15.54;62.38;100392.81;4970045;28;101048;-79
2022/06/02 03:52:21;;;;;;;12.57;11.52;;;;;;;15.57;61.62;100395.28;4954234;28;97401;-80
2022/06/02 03:55:19;;;;;;;13.52;12.30;;;;;;;15.52;61.90;100398.16;4954037;28;96906;-79
2022/06/02 03:57:47;;;;;;;12.30;11.13;;;;;;;15.52;61.46;100382.28;4938347;28;97038;-79
2022/06/02 04:00:23;;;;;;;13.20;12.10;;;;;;;15.62;60.87;100387.97;4953191;28;101568;-78
2022/06/02 04:02:53;;;;;;;11.80;10.77;;;;;;;15.68;60.72;100405.31;4921654;28;100186;-79
2022/06/02 04:05:40;;;;;;;12.15;11.10;;;;;;;15.83;60.34;100401.84;4953550;28;96895;-79
2022/06/02 04:08:33;;;;;;;12.55;11.45;;;;;;;16.07;59.63;100420.81;4953005;28;97314;-80
2022/06/02 04:11:11;;;;;;;11.93;10.88;;;;;;;16.13;59.48;100435.53;4952291;28;101242;-79
2022/06/02 04:13:44;;;;;;;11.88;10.63;;;;;;;16.08;59.57;100438.41;4969421;28;97628;-79
2022/06/02 04:16:18;;;;;;;11.57;10.68;;;;;;;16.15;59.30;100460.13;4949927;28;96888;-78
2022/06/02 04:22:32;;;;;;;11.57;10.60;;;;;;;15.82;60.34;100443.34;4985625;28;101486;-79
2022/06/02 04:25:17;;;;;;;10.95;9.85;;;;;;;15.79;60.41;100432.06;4965024;28;101217;-79
2022/06/02 04:27:55;;;;;;;11.10;10.20;;;;;;;15.71;60.68;100437.78;4983921;28;97795;-79
2022/06/02 04:30:31;;;;;;;11.63;10.65;;;;;;;15.62;60.89;100431.16;4962079;28;96892;-78
2022/06/02 04:33:35;;;;;;;10.70;9.75;;;;;;;15.56;61.64;100452.66;4952591;28;98001;-79
2022/06/02 04:36:23;;;;;;;10.77;9.88;;;;;;;15.56;61.91;100459.69;4968018;28;96879;-78
2022/06/02 04:39:07;;;;;;;11.02;10.23;;;;;;;15.54;62.25;100458.94;4968246;28;96944;-78
2022/06/02 04:41:53;;;;;;;12.07;10.88;;;;;;;15.59;62.42;100468.34;4971752;28;97847;-79
2022/06/02 04:45:16;;;;;;;12.32;11.05;;;;;;;15.64;62.02;100462.81;4966313;28;99637;-78
2022/06/02 04:48:24;;;;;;;12.23;10.73;;;;;;;15.55;61.72;100463.28;4891490;28;101538;-78
2022/06/02 04:50:55;;;;;;;12.50;11.40;;;;;;;15.60;61.80;100463.91;4903156;28;97182;-79
2022/06/02 04:53:26;;;;;;;11.60;10.65;;;;;;;15.48;61.75;100460.13;4939509;28;98320;-79
2022/06/02 04:55:54;;;;;;;;;;;;;;;15.47;62.32;100462.84;4999850;28;101579;-78
2022/06/02 04:58:40;;;;;;;11.23;10.52;;;;;;;15.47;62.43;100478.72;4972131;28;98227;-80
2022/06/02 05:01:36;;;;;;;11.38;10.68;;;;;;;15.44;62.76;100490.28;4951668;28;96731;-79
2022/06/02 05:04:09;;;;;;;11.25;10.45;;;;;;;15.48;63.10;100504.25;4969822;28;97000;-79
2022/06/02 05:06:38;;;;;;;10.82;10.13;;;;;;;15.49;63.21;100501.50;4950762;28;100734;-78
2022/06/02 05:09:40;;;;;;;11.48;10.65;;;;;;;15.37;64.05;100505.63;4955571;28;101361;-78
2022/06/02 05:12:11;;;;;;;13.05;10.60;;;;;;;15.44;64.28;100500.88;4931016;28;97148;-78
2022/06/02 05:14:39;;;;;;;;;;;;;;;15.41;65.16;100495.75;4979208;28;96854;-78
2022/06/02 05:17:29;;;;;;;12.65;11.55;;;;;;;15.29;66.28;100491.94;4936474;28;101757;-82
2022/06/02 05:20:30;;;;;;;11.73;10.93;;;;;;;15.49;65.72;100490.06;4992857;28;98518;-84
2022/06/02 05:23:04;;;;;;;12.83;11.83;;;;;;;15.36;66.24;100493.34;4917962;28;96871;-87
2022/06/02 05:25:54;;;;;;;12.50;11.38;;;;;;;15.50;65.55;100473.25;4970754;28;96990;-81
2022/06/02 05:28:27;;;;;;;14.07;12.65;;;;;;;15.71;64.86;100506.59;4959182;28;101193;-79
2022/06/02 05:30:56;;;;;;;12.88;11.77;;;;;;;15.74;64.62;100505.56;4954920;28;98070;-80
2022/06/02 05:33:33;;;;;;;12.80;11.80;;;;;;;15.94;64.05;100520.38;4942333;28;96805;-80
2022/06/02 05:36:07;;;;;;;12.13;11.30;;;;;;;16.04;64.36;100518.97;4975701;28;96795;-78
2022/06/02 05:38:45;;;;;;;12.07;11.23;;;;;;;16.15;63.46;100521.03;4939430;28;101374;-80
2022/06/02 05:41:33;;;;;;;12.48;11.63;;;;;;;16.10;63.92;100525.72;4954160;28;101410;-79
2022/06/02 05:44:56;;;;;;;11.82;10.82;;;;;;;16.06;63.44;100501.22;4927149;28;96929;-79
2022/06/02 05:47:30;;;;;;;13.10;12.10;;;;;;;15.85;64.61;100497.88;4909966;28;97570;-90
2022/06/02 05:49:59;;;;;;;11.90;11.10;;;;;;;15.86;65.04;100509.38;4978381;28;100431;-85
2022/06/02 05:52:31;;;;;;;12.30;11.10;;;;;;;15.76;63.70;100531.00;4947927;28;99691;-85
2022/06/02 05:55:35;;;;;;;13.52;12.07;;;;;;;15.63;63.58;100517.53;4945761;28;96851;-87
2022/06/02 05:58:42;;;;;;;11.63;10.73;;;;;;;15.74;63.53;100553.22;4948348;28;96950;-87
2022/06/02 06:01:48;;;;;;;11.85;10.63;;;;;;;15.72;63.23;100555.91;4927681;28;100352;-87
2022/06/02 06:05:03;;;;;;;12.07;11.18;;;;;;;15.72;63.54;100549.78;4906388;28;99442;-87
2022/06/02 06:08:02;;;;;;;11.80;10.73;;;;;;;15.81;63.25;100550.16;4851861;28;97648;-87
2022/06/02 06:11:23;;;;;;;11.50;10.45;;;;;;;15.93;63.04;100553.94;4827518;28;96940;-87
2022/06/02 06:14:44;;;;;;;11.75;11.05;;;;;;;15.81;63.44;100557.22;4843212;29;101779;-87
2022/06/02 06:18:03;;;;;;;11.38;10.40;;;;;;;15.87;63.09;100556.06;4853772;29;98169;-87
2022/06/02 06:21:11;;;;;;;11.80;10.63;;;;;;;15.98;61.68;100557.22;4842445;28;98244;-87
2022/06/02 06:24:42;;;;;;;12.25;11.45;;;;;;;17.22;59.24;100560.13;4874781;28;96771;-87
2022/06/02 06:27:51;;;;;;;12.52;11.27;;;;;;;21.65;48.53;100519.72;4832832;29;99008;-87
2022/06/02 06:31:00;;;;;;;12.88;11.63;;;;;;;23.89;43.85;100533.56;4772180;29;97881;-86
2022/06/02 06:33:51;;;;;;;12.48;11.57;;;;;;;25.61;40.81;100534.22;4810038;29;98339;-88
2022/06/02 06:36:42;;;;;;;11.00;10.27;;;;;;;26.24;39.23;100501.38;4817644;29;96983;-85
2022/06/02 06:39:29;;;;;;;12.15;11.38;;;;;;;26.98;37.39;100527.28;4790651;29;101517;-79
2022/06/02 06:42:07;;;;;;;13.00;11.63;;;;;;;27.43;36.77;100541.66;4803351;29;101318;-82
2022/06/02 06:44:48;;;;;;;12.00;11.20;;;;;;;28.60;34.76;100514.22;4857826;28;96862;-85
2022/06/02 06:47:51;;;;;;;11.90;11.13;;;;;;;29.47;33.96;100529.06;4870086;28;102841;-85
2022/06/02 06:50:48;;;;;;;12.75;11.80;;;;;;;29.64;32.21;100515.53;4900536;28;100282;-87
2022/06/02 06:53:50;;;;;;;12.40;11.50;;;;;;;30.56;30.77;100529.47;4889152;28;100176;-88
2022/06/02 06:56:37;;;;;;;;;;;;;;;30.88;29.78;100540.13;4905461;28;97001;-87
2022/06/02 06:59:41;;;;;;;11.90;10.95;;;;;;;31.88;29.25;100532.88;4898646;28;97981;-89
2022/06/02 07:02:25;;;;;;;;;;;;;;;31.67;28.59;100533.59;4885670;28;102043;-87
2022/06/02 07:05:48;;;;;;;12.70;11.60;;;;;;;30.90;29.79;100529.97;4917972;28;96983;-88
2022/06/02 07:08:37;;;;;;;12.98;11.90;;;;;;;31.47;28.84;100528.69;4982314;28;96692;-87
2022/06/02 07:14:39;;;;;;;13.20;11.82;;;;;;;32.47;27.85;100501.16;4967520;28;98508;-87
2022/06/02 07:17:12;;;;;;;12.15;11.20;;;;;;;33.58;25.92;100526.13;4966746;28;98918;-87
2022/06/02 07:20:12;;;;;;;12.68;11.68;;;;;;;33.42;26.58;100523.66;4962487;28;96759;-87
2022/06/02 07:22:56;;;;;;;13.15;12.00;;;;;;;33.70;25.58;100512.81;4984350;28;96965;-88
2022/06/02 07:25:25;;;;;;;11.98;11.07;;;;;;;33.07;26.85;100528.16;4946254;28;102208;-87
2022/06/02 07:28:11;;;;;;;11.25;10.35;;;;;;;33.21;26.38;100523.69;4950516;28;101521;-88
2022/06/02 07:30:59;;;;;;;13.10;11.93;;;;;;;33.70;25.57;100533.75;4941374;28;96782;-89
2022/06/02 07:33:43;;;;;;;11.60;10.70;;;;;;;33.45;25.38;100508.81;4966013;28;97001;-88
2022/06/02 07:36:20;;;;;;;12.75;11.75;;;;;;;33.24;25.52;100512.44;4937209;28;101827;-88
2022/06/02 07:39:20;;;;;;;12.57;11.60;;;;;;;34.13;24.78;100533.66;4968752;28;101349;-87
2022/06/02 07:42:06;;;;;;;12.35;11.45;;;;;;;34.57;24.89;100538.69;4877746;28;96982;-88
2022/06/02 07:45:18;;;;;;;11.93;11.23;;;;;;;34.26;24.46;100514.63;4817124;29;98665;-87
2022/06/02 07:48:22;;;;;;;12.07;11.35;;;;;;;34.29;24.82;100544.19;4818836;29;100074;-87
2022/06/02 07:51:30;;;;;;;11.90;11.10;;;;;;;34.25;24.47;100538.31;4842300;29;98502;-88
2022/06/02 07:54:31;;;;;;;12.13;11.30;;;;;;;34.46;24.54;100542.78;4810673;29;96896;-88
2022/06/02 07:57:07;;;;;;;12.02;11.32;;;;;;;34.93;23.97;100515.72;4803825;29;97388;-87
2022/06/02 08:00:14;;;;;;;12.40;11.60;;;;;;;34.45;24.10;100543.84;4818389;29;100011;-87
2022/06/02 08:03:12;;;;;;;11.95;11.23;;;;;;;33.40;25.42;100552.97;4816502;29;98391;-87
2022/06/02 08:05:48;;;;;;;11.90;11.20;;;;;;;34.57;24.22;100557.78;4832100;29;97010;-85
2022/06/02 08:08:19;;;;;;;12.38;11.68;;;;;;;35.31;23.60;100554.19;4812275;29;96959;-86
2022/06/02 08:10:58;;;;;;;12.55;11.35;;;;;;;35.77;22.94;100547.91;4820448;29;100886;-87
2022/06/02 08:13:27;;;;;;;12.20;11.40;;;;;;;35.33;23.18;100557.53;4814874;29;98338;-87
2022/06/02 08:15:59;;;;;;;;;;;;;;;33.20;25.55;100557.38;4830294;29;96944;-88
2022/06/02 08:19:00;;;;;;;11.95;11.20;;;;;;;34.65;24.04;100570.38;4827914;28;97323;-87
2022/06/02 08:21:45;;;;;;;;;;;;;;;35.27;23.34;100565.72;4905471;28;101253;-87
2022/06/02 08:24:29;;;;;;;11.55;10.68;;;;;;;34.39;23.83;100552.84;4967595;28;99784;-87
2022/06/02 08:27:20;;;;;;;11.50;10.80;;;;;;;33.41;25.04;100576.41;4965438;28;97224;-87
2022/06/02 08:30:12;;;;;;;11.57;10.57;;;;;;;34.34;23.51;100581.72;4942094;28;97046;-87
2022/06/02 08:32:41;;;;;;;10.95;10.25;;;;;;;35.33;23.11;100567.63;4951604;28;101526;-87
2022/06/02 08:35:33;;;;;;;10.88;10.27;;;;;;;35.18;22.58;100559.63;4972578;28;100949;-87
2022/06/02 08:38:26;;;;;;;11.52;10.80;;;;;;;34.50;23.11;100545.94;4951015;28;97316;-88
2022/06/02 08:41:42;;;;;;;11.98;11.13;;;;;;;34.88;22.89;100578.22;4944500;28;97638;-89
2022/06/02 08:44:49;;;;;;;10.77;10.02;;;;;;;34.07;23.13;100556.25;4934638;28;101316;-86
2022/06/02 08:47:53;;;;;;;10.57;9.98;;;;;;;35.07;22.87;100569.25;4868444;28;101133;-87
2022/06/02 08:50:27;;;;;;;11.02;10.43;;;;;;;34.60;23.10;100583.78;4871885;28;97040;-87
2022/06/02 08:52:56;;;;;;;10.90;10.00;;;;;;;34.68;22.96;100565.34;4871826;28;97180;-88
2022/06/02 08:55:59;;;;;;;10.30;9.80;;;;;;;34.47;23.45;100593.53;4857878;28;102160;-88
2022/06/02 08:58:27;;;;;;;9.52;9.02;;;;;;;33.96;22.68;100574.78;4874994;28;101688;-86
2022/06/02 09:01:05;;;;;;;10.30;9.50;;;;;;;33.60;23.34;100574.94;4858422;28;97221;-88
2022/06/02 09:04:02;;;;;;;10.77;10.18;;;;;;;32.77;24.11;100584.47;4874210;28;96990;-88
2022/06/02 09:06:55;;;;;;;10.23;9.52;;;;;;;32.53;25.26;100583.78;4867984;28;99919;-84
2022/06/02 09:09:42;;;;;;;10.57;9.95;;;;;;;32.43;25.15;100589.44;4856024;28;101315;-83
2022/06/02 09:12:15;;;;;;;10.32;9.30;;;;;;;31.46;26.50;100591.28;4854456;28;97447;-80
2022/06/02 09:15:07;;;;;;;11.13;10.50;;;;;;;31.45;25.45;100582.28;4865112;28;97397;-88
2022/06/02 09:17:53;;;;;;;9.38;8.77;;;;;;;31.34;26.38;100591.66;4862236;28;98651;-87
2022/06/02 09:20:40;;;;;;;12.75;11.82;;;;;;;30.95;27.05;100597.19;4888166;28;97627;-87
2022/06/02 09:23:15;;;;;;;10.70;9.98;;;;;;;30.85;28.06;100601.97;4865447;28;96962;-86
2022/06/02 09:25:52;;;;;;;10.80;10.07;;;;;;;30.80;27.45;100602.50;4952156;28;96930;-86
2022/06/02 09:28:49;;;;;;;10.95;10.25;;;;;;;30.49;27.38;100610.59;4965974;28;101687;-87
2022/06/02 09:31:36;;;;;;;9.27;8.68;;;;;;;30.45;27.53;100611.94;4947041;28;97521;-88
2022/06/02 09:34:28;;;;;;;9.90;9.27;;;;;;;29.91;27.94;100596.31;4974052;28;97122;-86
2022/06/02 09:36:54;;;;;;;9.95;9.25;;;;;;;29.69;29.21;100613.22;4955083;28;97644;-89
2022/06/02 09:39:35;;;;;;;10.35;9.30;;;;;;;29.85;27.87;100604.28;4925883;28;101173;-90
2022/06/02 09:42:06;;;;;;;10.23;9.52;;;;;;;29.49;29.43;100609.97;4934785;28;100980;-89
2022/06/02 09:44:46;;;;;;;10.55;9.70;;;;;;;29.47;28.62;100603.91;4952135;28;96923;-87
2022/06/02 09:47:30;;;;;;;10.57;9.60;;;;;;;29.09;29.30;100608.94;4964144;28;97328;-88
2022/06/02 09:50:27;;;;;;;10.25;9.35;;;;;;;28.79;28.92;100604.91;4949343;28;100035;-89
2022/06/02 09:53:07;;;;;;;10.02;9.00;;;;;;;28.34;29.36;100609.59;4966635;28;101614;-91
2022/06/02 09:56:05;;;;;;;9.40;8.80;;;;;;;27.77;29.78;100603.78;4967501;28;97702;-86
2022/06/02 09:59:10;;;;;;;10.13;9.05;;;;;;;27.57;30.36;100611.19;4968995;28;96723;-87
2022/06/02 10:02:10;;;;;;;9.48;8.80;;;;;;;27.66;29.69;100612.13;4915428;28;101320;-89
2022/06/02 10:04:52;;;;;;;9.33;8.83;;;;;;;27.39;30.15;100596.91;4944009;28;101304;-88
2022/06/02 10:07:26;;;;;;;9.40;8.80;;;;;;;27.22;30.67;100617.44;4951342;28;96775;-89
2022/06/02 10:10:07;;;;;;;9.75;9.15;;;;;;;27.22;30.57;100615.59;4968503;28;96868;-89
2022/06/02 10:12:58;;;;;;;8.77;8.07;;;;;;;26.86;30.03;100603.91;4956104;28;101838;-86
2022/06/02 10:15:48;;;;;;;8.75;8.15;;;;;;;26.65;30.28;100620.31;4954480;28;101603;-90
2022/06/02 10:18:35;;;;;;;9.18;8.57;;;;;;;26.48;30.52;100596.84;4950196;28;96806;-90
2022/06/02 10:21:32;;;;;;;8.77;8.20;;;;;;;26.20;30.62;100612.94;4969205;28;97059;-89
2022/06/02 10:24:20;;;;;;;8.98;8.40;;;;;;;26.04;30.86;100607.34;4954098;28;98228;-89
2022/06/02 10:27:34;;;;;;;8.95;8.45;;;;;;;25.81;31.07;100636.34;4972299;28;101661;-89
2022/06/02 10:30:24;;;;;;;9.80;8.90;;;;;;;25.79;31.67;100631.09;4921296;28;96918;-88
2022/06/02 10:33:23;;;;;;;9.40;8.80;;;;;;;25.49;31.73;100619.53;4989434;28;96859;-89
2022/06/02 10:36:10;;;;;;;8.93;8.43;;;;;;;25.52;31.98;100623.78;4931052;28;101502;-87
2022/06/02 10:38:50;;;;;;;9.50;8.95;;;;;;;25.41;32.49;100605.09;4965368;28;97344;-90
2022/06/02 10:41:19;;;;;;;9.10;8.50;;;;;;;25.49;31.93;100621.38;4952269;28;97253;-88
2022/06/02 10:44:06;;;;;;;10.50;9.70;;;;;;;25.28;32.52;100624.19;4988522;28;96921;-89
2022/06/02 10:46:43;;;;;;;10.18;9.27;;;;;;;25.25;32.18;100621.78;4970303;28;101668;-89
2022/06/02 10:49:11;;;;;;;9.95;8.93;;;;;;;25.12;32.83;100630.06;4968887;28;97574;-86
2022/06/02 10:52:14;;;;;;;8.98;8.48;;;;;;;25.13;33.05;100620.16;4961769;28;99984;-89
2022/06/02 10:55:01;;;;;;;9.43;8.77;;;;;;;25.13;32.75;100609.41;4970073;28;97122;-89
2022/06/02 10:58:01;;;;;;;8.68;8.23;;;;;;;25.11;33.08;100609.56;4946354;28;101415;-88
2022/06/02 11:00:45;;;;;;;9.30;8.70;;;;;;;25.20;33.35;100613.28;4956231;28;97388;-88
2022/06/02 11:03:48;;;;;;;9.02;8.52;;;;;;;25.21;32.97;100615.81;4965681;28;96881;-88
2022/06/02 11:06:32;;;;;;;8.60;8.07;;;;;;;25.15;32.23;100612.84;4970672;28;96815;-88
2022/06/02 11:09:10;;;;;;;9.05;8.30;;;;;;;25.06;32.40;100609.97;4971532;28;100317;-88
2022/06/02 11:11:54;;;;;;;10.00;9.15;;;;;;;24.93;32.00;100604.03;4954738;28;100414;-88
2022/06/02 11:14:58;;;;;;;13.60;8.52;;;;;;;24.86;33.16;100608.25;4958169;28;96676;-88
2022/06/02 11:17:33;;;;;;;8.85;8.25;;;;;;;24.78;32.54;100608.06;4919329;28;100757;-89
2022/06/02 11:20:36;;;;;;;8.77;8.27;;;;;;;24.78;32.93;100610.75;4954022;28;99892;-89
2022/06/02 11:23:25;;;;;;;9.15;8.27;;;;;;;24.79;33.08;100599.91;4977018;28;98338;-88
2022/06/02 11:26:00;;;;;;;7.72;7.32;;;;;;;24.67;32.67;100582.22;4957105;28;96869;-89
2022/06/02 11:28:45;;;;;;;8.40;7.80;;;;;;;24.74;31.94;100604.81;4972278;28;97487;-89
2022/06/02 11:31:29;;;;;;;7.90;7.50;;;;;;;24.56;32.30;100599.25;4951687;28;100028;-89
2022/06/02 11:34:23;;;;;;;8.25;7.75;;;;;;;24.52;32.52;100599.66;4967281;28;98201;-86
2022/06/02 11:37:32;;;;;;;8.18;7.68;;;;;;;24.45;32.35;100595.81;4940260;28;97141;-84
2022/06/02 11:40:03;;;;;;;7.88;7.47;;;;;;;24.48;32.61;100596.41;4905252;28;96943;-85
2022/06/02 11:42:50;;;;;;;8.73;8.23;;;;;;;24.49;33.17;100605.28;4927350;28;100086;-82
2022/06/02 11:45:27;;;;;;;8.43;7.60;;;;;;;24.51;33.03;100603.34;4947254;28;98426;-83
2022/06/02 11:48:23;;;;;;;11.25;8.30;;;;;;;24.45;32.54;100601.19;4933410;28;98367;-85
2022/06/02 11:50:52;;;;;;;8.10;7.68;;;;;;;24.50;32.60;100609.69;4924353;28;97233;-85
2022/06/02 11:53:36;;;;;;;8.10;7.60;;;;;;;24.57;32.66;100598.25;4923597;28;101619;-85
2022/06/02 11:56:53;;;;;;;8.50;7.80;;;;;;;24.55;32.13;100597.56;4926398;28;97716;-85
2022/06/02 11:59:33;;;;;;;8.15;7.68;;;;;;;24.56;32.18;100601.09;4888383;28;98149;-83
2022/06/02 12:01:58;;;;;;;7.97;7.47;;;;;;;24.57;32.00;100597.41;4952122;28;97029;-85
2022/06/02 12:04:45;;;;;;;7.72;7.32;;;;;;;24.52;32.04;100605.91;4908901;28;100051;-85
2022/06/02 12:07:20;;;;;;;8.13;7.43;;;;;;;24.47;31.85;100600.06;4943142;28;97379;-85
2022/06/02 12:10:22;;;;;;;7.47;6.95;;;;;;;24.44;32.21;100607.56;4901477;28;96999;-85
2022/06/02 12:13:05;;;;;;;8.50;7.75;;;;;;;24.35;31.76;100598.44;4933453;28;97521;-85
2022/06/02 12:15:43;;;;;;;7.45;7.05;;;;;;;24.43;31.56;100604.00;4973122;28;104261;-86
2022/06/02 12:18:47;;;;;;;7.82;7.43;;;;;;;24.36;31.59;100600.97;4979519;28;99438;-85
2022/06/02 12:21:27;;;;;;;8.40;7.90;;;;;;;24.16;32.09;100561.63;4958870;28;96943;-85
2022/06/02 12:24:19;;;;;;;7.57;7.17;;;;;;;24.42;32.13;100604.97;4957274;28;96848;-79
2022/06/02 12:27:11;;;;;;;7.85;7.40;;;;;;;24.17;32.81;100576.72;4935421;28;101541;-81
2022/06/02 12:30:16;;;;;;;7.90;7.50;;;;;;;24.36;32.68;100600.13;4962017;28;101075;-80
2022/06/02 12:33:24;;;;;;;8.48;8.00;;;;;;;24.29;32.43;100599.81;4948260;28;97682;-80
2022/06/02 12:36:14;;;;;;;8.80;8.20;;;;;;;24.33;32.61;100603.94;4948390;28;97384;-83
2022/06/02 12:39:04;;;;;;;7.97;7.38;;;;;;;24.35;32.17;100617.22;4880624;28;102801;-82
2022/06/02 12:42:22;;;;;;;8.35;7.65;;;;;;;24.31;32.37;100605.88;4909979;28;98379;-83
2022/06/02 12:45:34;;;;;;;8.00;7.60;;;;;;;24.33;32.39;100616.50;4883657;28;96872;-83
2022/06/02 12:48:28;;;;;;;8.38;7.93;;;;;;;24.28;32.23;100611.53;4874891;28;97322;-83
2022/06/02 12:51:15;;;;;;;8.45;7.75;;;;;;;24.28;32.96;100608.00;4895851;28;101532;-88
2022/06/02 12:53:56;;;;;;;8.60;7.47;;;;;;;24.09;32.69;100587.31;4848427;28;101836;-91